Terminal Aerodrome Forecast
Issued by NWS

Home | Current Version | Previous Version | Text Only | Print | Product List | Glossary On
Versions: 1 2 3 4 5 6 7 8 9 10 11 12 13 14 15 16 17 18 19 20 21 22 23 24 25 26 27 28 29 30
000
FTUS44 KLUB 251120
TAFCDS
TAF
KCDS 251120Z 2512/2612 20010KT P6SM FEW020 SCT100 BKN200
     FM251600 19013KT P6SM -TSRA SCT035CB BKN100
      TEMPO 2516/2520 3SM TSRA BKN015CB
     FM252000 16012KT P6SM SCT045 SCT120
     FM260100 17008KT P6SM SCT010 SCT100=

USA.gov is the U.S. government's official web portal to all federal, state and local government web resources and services.